Time;durP1;ratioP1;P1;durP2;ratioP2;P2;SDS_P1;SDS_P2;PMS_P1;PMS_P2;Temp;Humidity;BMP_temperature;BMP_pressure;BME280_temperature;BME280_humidity;BME280_pressure;Samples;Min_cycle;Max_cycle;Signal;HPM_P1;HPM_P2
2023/10/03 00:00:33;;;;;;;15.82;8.70;;;24.10;64.10;;;;;;6006239;23;87295;-84
2023/10/03 00:03:01;;;;;;;15.98;9.35;;;24.10;64.00;;;;;;5997580;23;88437;-82
2023/10/03 00:05:29;;;;;;;16.17;8.77;;;24.10;64.30;;;;;;6007825;23;88731;-82
2023/10/03 00:07:56;;;;;;;14.85;8.85;;;24.10;64.00;;;;;;6007471;23;87824;-82
2023/10/03 00:10:22;;;;;;;15.15;9.02;;;24.10;64.20;;;;;;6000833;23;87211;-84
2023/10/03 00:12:51;;;;;;;15.52;8.75;;;24.10;64.30;;;;;;6052942;23;87261;-83
2023/10/03 00:15:18;;;;;;;15.23;9.43;;;24.10;64.20;;;;;;6006733;23;88939;-83
2023/10/03 00:17:44;;;;;;;13.68;7.95;;;24.10;64.10;;;;;;6008816;23;89293;-82
2023/10/03 00:20:31;;;;;;;13.23;8.57;;;24.00;64.00;;;;;;5999037;23;87363;-82
2023/10/03 00:23:14;;;;;;;13.02;8.45;;;24.10;64.20;;;;;;6007312;23;87175;-83
2023/10/03 00:25:44;;;;;;;15.75;8.70;;;24.10;64.10;;;;;;6005844;23;90172;-83
2023/10/03 00:28:10;;;;;;;13.60;8.40;;;24.00;64.10;;;;;;5999015;23;89744;-82
2023/10/03 00:30:40;;;;;;;13.15;8.20;;;24.10;64.10;;;;;;6006496;23;87036;-83
2023/10/03 00:33:10;;;;;;;14.48;8.88;;;24.00;63.90;;;;;;6009197;23;87959;-82
2023/10/03 00:35:35;;;;;;;17.73;9.23;;;24.00;64.10;;;;;;6009307;23;88095;-81
2023/10/03 00:38:05;;;;;;;16.00;9.20;;;24.00;64.20;;;;;;6046925;23;89342;-82
2023/10/03 00:40:31;;;;;;;14.98;8.50;;;24.00;64.10;;;;;;6006007;23;88184;-82
2023/10/03 00:42:59;;;;;;;14.10;8.65;;;24.00;64.00;;;;;;6045152;23;88818;-81
2023/10/03 00:45:49;;;;;;;15.20;9.13;;;24.00;64.10;;;;;;6007154;23;88541;-82
2023/10/03 00:48:17;;;;;;;14.85;8.68;;;24.00;64.00;;;;;;6006712;23;88296;-82
2023/10/03 00:50:42;;;;;;;14.43;8.75;;;24.00;64.20;;;;;;6009288;23;86843;-83
2023/10/03 00:53:08;;;;;;;13.13;8.57;;;24.00;64.20;;;;;;6023150;23;88870;-83
2023/10/03 00:55:38;;;;;;;14.45;9.57;;;24.00;64.20;;;;;;6054988;23;89664;-82
2023/10/03 01:00:41;;;;;;;16.23;9.68;;;24.00;64.10;;;;;;6007165;23;87406;-81
2023/10/03 01:03:23;;;;;;;13.50;8.60;;;24.00;64.10;;;;;;6007845;23;87471;-81
2023/10/03 01:05:49;;;;;;;15.65;9.15;;;24.00;64.10;;;;;;5994967;23;91426;-83
2023/10/03 01:08:15;;;;;;;13.65;8.88;;;24.00;64.20;;;;;;6007885;23;88683;-82
2023/10/03 01:10:40;;;;;;;14.38;8.60;;;24.00;64.20;;;;;;6007242;23;87042;-82
2023/10/03 01:13:13;;;;;;;14.82;8.73;;;24.00;64.00;;;;;;6007197;23;87276;-82
2023/10/03 01:15:39;;;;;;;13.32;8.25;;;24.00;64.20;;;;;;6007169;23;87773;-82
2023/10/03 01:18:09;;;;;;;14.90;9.40;;;24.00;64.20;;;;;;6045953;23;88619;-82
2023/10/03 01:20:40;;;;;;;13.35;7.95;;;23.90;64.30;;;;;;6008136;23;87226;-81
2023/10/03 01:23:10;;;;;;;14.25;8.85;;;23.90;64.30;;;;;;6007532;23;88686;-81
2023/10/03 01:25:42;;;;;;;13.20;8.45;;;23.90;64.10;;;;;;6007099;23;87598;-84
2023/10/03 01:28:12;;;;;;;14.10;8.52;;;23.90;64.30;;;;;;5998752;23;87258;-82
2023/10/03 01:30:40;;;;;;;14.05;8.90;;;23.90;64.50;;;;;;6054068;23;88269;-82
2023/10/03 01:33:10;;;;;;;12.90;7.83;;;23.90;64.30;;;;;;5999381;23;87566;-85
2023/10/03 01:35:36;;;;;;;14.75;8.85;;;23.90;64.20;;;;;;6007103;23;89910;-82
2023/10/03 01:38:01;;;;;;;15.60;9.82;;;23.90;64.30;;;;;;5997530;23;91343;-82
2023/10/03 01:40:27;;;;;;;14.00;8.07;;;23.90;64.10;;;;;;6007101;23;87373;-81
2023/10/03 01:42:53;;;;;;;13.32;8.38;;;23.90;64.30;;;;;;5996182;23;87645;-82
2023/10/03 01:45:27;;;;;;;14.60;9.27;;;23.90;64.30;;;;;;6006947;23;87789;-84
2023/10/03 01:47:56;;;;;;;13.43;8.52;;;23.90;64.40;;;;;;5997362;23;92619;-83
2023/10/03 01:50:22;;;;;;;13.65;8.48;;;23.90;64.40;;;;;;6007084;23;87252;-81
2023/10/03 01:52:49;;;;;;;14.02;9.00;;;23.90;64.30;;;;;;6035549;23;88057;-82
2023/10/03 01:55:17;;;;;;;16.00;8.98;;;23.90;64.30;;;;;;6036801;23;89148;-81
2023/10/03 01:58:04;;;;;;;13.43;8.50;;;23.90;64.30;;;;;;6021990;23;89131;-83
2023/10/03 02:00:30;;;;;;;13.80;8.52;;;23.90;64.30;;;;;;6014258;23;87127;-83
2023/10/03 02:03:00;;;;;;;16.23;9.30;;;23.90;64.50;;;;;;6034542;23;88105;-84
2023/10/03 02:05:27;;;;;;;14.10;8.98;;;23.80;64.20;;;;;;6037518;23;88744;-82
2023/10/03 02:07:57;;;;;;;12.63;8.32;;;23.80;64.20;;;;;;6035189;23;88159;-83
2023/10/03 02:10:23;;;;;;;13.52;7.90;;;23.90;64.20;;;;;;6037230;23;87165;-82
2023/10/03 02:12:49;;;;;;;12.82;8.05;;;23.90;64.20;;;;;;6036348;23;89757;-82
2023/10/03 02:15:23;;;;;;;15.52;8.95;;;23.90;64.30;;;;;;6036367;23;87886;-81
2023/10/03 02:17:50;;;;;;;14.55;8.82;;;23.90;64.40;;;;;;6010235;23;90539;-82
2023/10/03 02:20:20;;;;;;;15.75;9.48;;;23.80;64.20;;;;;;6036120;23;88608;-82
2023/10/03 02:22:53;;;;;;;13.48;9.10;;;23.80;64.20;;;;;;6036414;23;87135;-82
2023/10/03 02:25:43;;;;;;;12.68;8.27;;;23.80;64.20;;;;;;6024547;23;88605;-82
2023/10/03 02:28:08;;;;;;;;;;;23.90;64.30;;;;;;6034394;23;87486;-82
2023/10/03 02:30:34;;;;;;;15.00;8.55;;;23.80;64.20;;;;;;6037560;23;87499;-83
2023/10/03 02:33:12;;;;;;;13.75;8.55;;;23.80;64.30;;;;;;6009087;23;87307;-82
2023/10/03 02:35:39;;;;;;;14.02;8.65;;;23.80;64.40;;;;;;6036375;23;88839;-82
2023/10/03 02:38:10;;;;;;;14.77;8.90;;;23.80;64.20;;;;;;6035760;23;87085;-82
2023/10/03 02:40:35;;;;;;;12.55;8.32;;;23.80;64.30;;;;;;6008767;23;87701;-82
2023/10/03 02:43:01;;;;;;;14.07;8.70;;;23.80;64.30;;;;;;6009675;23;88023;-82
2023/10/03 02:45:27;;;;;;;13.70;8.25;;;23.80;64.30;;;;;;6009124;23;89905;-82
2023/10/03 02:48:01;;;;;;;12.90;7.93;;;23.80;64.20;;;;;;6035965;23;89624;-80
2023/10/03 02:50:27;;;;;;;13.23;8.05;;;23.80;64.50;;;;;;6036086;23;87514;-82
2023/10/03 02:52:56;;;;;;;14.15;8.50;;;23.80;64.20;;;;;;6032911;23;89610;-82
2023/10/03 02:55:22;;;;;;;12.85;7.80;;;23.80;64.30;;;;;;6008076;23;88639;-82
2023/10/03 02:57:49;;;;;;;13.52;8.10;;;23.80;64.20;;;;;;6035066;23;88373;-81
2023/10/03 03:00:15;;;;;;;13.98;8.43;;;23.80;64.40;;;;;;6009879;23;86932;-81
2023/10/03 03:02:42;;;;;;;14.35;8.60;;;23.80;64.30;;;;;;6036760;23;87383;-81
2023/10/03 03:05:11;;;;;;;13.77;8.48;;;23.80;64.10;;;;;;6035299;23;88195;-82
2023/10/03 03:07:37;;;;;;;12.50;7.60;;;23.80;64.30;;;;;;6008698;23;88273;-82
2023/10/03 03:10:06;;;;;;;14.25;8.30;;;23.80;64.40;;;;;;6007794;23;88171;-82
2023/10/03 03:12:35;;;;;;;14.35;7.90;;;23.80;64.30;;;;;;6009185;23;88611;-82
2023/10/03 03:15:01;;;;;;;;;;;23.80;64.30;;;;;;6034195;23;88016;-86
2023/10/03 03:17:28;;;;;;;14.60;8.23;;;23.80;64.30;;;;;;6010591;23;89064;-82
2023/10/03 03:19:55;;;;;;;14.13;8.15;;;23.80;64.20;;;;;;6035615;23;86925;-81
2023/10/03 03:22:21;;;;;;;14.20;8.38;;;23.80;64.40;;;;;;6008703;23;87994;-82
2023/10/03 03:24:51;;;;;;;13.68;8.15;;;23.80;64.30;;;;;;6009357;23;90312;-82
2023/10/03 03:27:18;;;;;;;14.95;8.68;;;23.80;64.30;;;;;;6008859;23;88859;-81
2023/10/03 03:32:28;;;;;;;14.82;8.65;;;23.80;64.10;;;;;;6034950;23;90462;-83
2023/10/03 03:34:53;;;;;;;13.55;8.70;;;23.80;64.30;;;;;;6033647;23;90066;-82
2023/10/03 03:37:22;;;;;;;13.98;8.35;;;23.80;64.20;;;;;;6036288;23;89194;-82
2023/10/03 03:39:57;;;;;;;13.07;8.20;;;23.80;64.10;;;;;;6035982;23;87152;-81
2023/10/03 03:42:22;;;;;;;14.02;8.73;;;23.70;64.00;;;;;;6021473;23;88594;-82
2023/10/03 03:44:49;;;;;;;15.45;8.88;;;23.70;64.10;;;;;;6002347;23;89470;-82
2023/10/03 03:47:18;;;;;;;14.90;8.93;;;23.70;64.20;;;;;;6031102;23;87617;-82
2023/10/03 03:49:44;;;;;;;15.50;9.23;;;23.70;64.10;;;;;;6014364;23;86939;-82
2023/10/03 03:52:12;;;;;;;15.70;9.05;;;23.70;64.10;;;;;;6007575;23;88053;-84
2023/10/03 03:54:39;;;;;;;14.30;8.18;;;23.70;64.20;;;;;;6006991;23;94953;-83
2023/10/03 03:57:05;;;;;;;13.82;8.77;;;23.70;64.20;;;;;;6006158;23;88384;-82
2023/10/03 03:59:32;;;;;;;13.88;8.60;;;23.70;64.00;;;;;;6007654;23;88047;-82
2023/10/03 04:02:00;;;;;;;15.38;8.30;;;23.70;64.20;;;;;;6006820;23;86903;-82
2023/10/03 04:04:25;;;;;;;14.45;8.85;;;23.70;64.90;;;;;;6026247;23;89279;-83
2023/10/03 04:06:52;;;;;;;15.05;8.80;;;23.70;64.10;;;;;;6006325;23;87355;-85
2023/10/03 04:09:18;;;;;;;12.52;7.97;;;23.70;64.00;;;;;;6000101;23;87358;-83
2023/10/03 04:11:43;;;;;;;13.48;7.90;;;23.70;64.10;;;;;;6042489;23;87479;-82
2023/10/03 04:14:09;;;;;;;12.07;7.85;;;23.70;63.80;;;;;;6006598;23;87966;-82
2023/10/03 04:16:39;;;;;;;16.60;9.13;;;23.70;63.90;;;;;;6006798;23;87535;-85
2023/10/03 04:19:06;;;;;;;13.98;8.23;;;23.70;64.00;;;;;;6004031;23;89798;-86
2023/10/03 04:21:32;;;;;;;12.65;8.05;;;23.70;64.00;;;;;;6025804;23;87392;-82
2023/10/03 04:23:59;;;;;;;14.57;8.57;;;23.70;64.50;;;;;;6007009;23;89666;-82
2023/10/03 04:26:25;;;;;;;14.82;8.40;;;23.70;64.40;;;;;;6008602;23;89066;-82
2023/10/03 04:28:58;;;;;;;13.23;8.13;;;23.70;65.00;;;;;;6042449;23;87445;-86
2023/10/03 04:31:24;;;;;;;13.63;7.97;;;23.70;64.50;;;;;;6007138;23;88775;-83
2023/10/03 04:33:50;;;;;;;13.88;7.88;;;23.70;64.50;;;;;;6007681;23;88017;-85
2023/10/03 04:36:16;;;;;;;13.40;8.25;;;23.70;64.70;;;;;;6008813;23;87655;-81
2023/10/03 04:38:42;;;;;;;13.82;8.43;;;23.70;64.60;;;;;;6008178;23;87244;-82
2023/10/03 04:41:09;;;;;;;14.52;8.68;;;23.70;64.50;;;;;;6006986;23;87360;-82
2023/10/03 04:43:35;;;;;;;14.27;7.88;;;23.70;64.40;;;;;;6006757;23;89021;-82
2023/10/03 04:46:02;;;;;;;15.90;9.05;;;23.70;64.20;;;;;;6013736;23;88094;-82
2023/10/03 04:48:28;;;;;;;13.68;8.05;;;23.70;64.10;;;;;;6014927;23;88051;-81
2023/10/03 04:50:54;;;;;;;13.50;7.90;;;23.70;64.20;;;;;;6006091;23;87647;-83
2023/10/03 04:53:20;;;;;;;14.65;8.80;;;23.70;64.60;;;;;;6006646;23;91078;-80
2023/10/03 04:55:48;;;;;;;14.05;8.75;;;23.70;64.70;;;;;;6005761;23;89357;-83
2023/10/03 04:58:14;;;;;;;14.30;8.18;;;23.70;64.40;;;;;;6046668;23;88031;-83
2023/10/03 05:00:42;;;;;;;13.88;8.77;;;23.70;64.50;;;;;;6005743;23;87430;-84
2023/10/03 05:03:11;;;;;;;14.27;8.40;;;23.70;64.50;;;;;;6045059;23;89779;-81
2023/10/03 05:05:47;;;;;;;14.57;8.02;;;23.70;64.30;;;;;;6006594;23;88823;-83
2023/10/03 05:08:13;;;;;;;15.02;9.13;;;23.70;64.50;;;;;;5999041;23;87952;-82
2023/10/03 05:10:39;;;;;;;13.32;8.20;;;23.70;64.50;;;;;;6054889;23;87740;-80
2023/10/03 05:13:05;;;;;;;14.55;8.27;;;23.60;64.60;;;;;;6005697;23;90465;-81
2023/10/03 05:15:31;;;;;;;13.13;7.82;;;23.70;64.70;;;;;;6006478;23;89669;-81
2023/10/03 05:17:56;;;;;;;13.13;7.85;;;23.70;64.60;;;;;;6007846;23;87019;-82
2023/10/03 05:20:34;;;;;;;13.93;8.88;;;23.70;64.50;;;;;;6002474;23;89885;-82
2023/10/03 05:23:03;;;;;;;14.52;8.45;;;23.70;64.60;;;;;;5997172;23;88357;-83
2023/10/03 05:25:28;;;;;;;14.85;8.55;;;23.70;64.40;;;;;;6008306;23;87231;-83
2023/10/03 05:27:54;;;;;;;14.48;7.82;;;23.70;64.30;;;;;;5995661;23;87440;-82
2023/10/03 05:30:20;;;;;;;12.95;8.48;;;23.70;64.50;;;;;;6007896;23;87443;-82
2023/10/03 05:32:46;;;;;;;13.95;8.15;;;23.70;64.50;;;;;;6020344;23;90218;-83
2023/10/03 05:35:12;;;;;;;13.60;7.88;;;23.70;64.40;;;;;;6029084;23;88292;-84
2023/10/03 05:37:41;;;;;;;12.57;7.70;;;23.70;64.20;;;;;;6007836;23;88233;-84
2023/10/03 05:40:18;;;;;;;15.73;9.07;;;23.70;64.20;;;;;;6008039;23;89066;-84
2023/10/03 05:42:45;;;;;;;14.40;8.13;;;23.70;64.30;;;;;;6007982;23;87967;-84
2023/10/03 05:45:14;;;;;;;13.98;8.13;;;23.70;64.30;;;;;;6006268;23;87716;-85
2023/10/03 05:47:45;;;;;;;13.80;8.52;;;23.70;64.40;;;;;;6008889;23;87279;-81
2023/10/03 05:50:12;;;;;;;12.48;7.90;;;23.60;64.40;;;;;;6007048;23;87257;-82
2023/10/03 05:52:38;;;;;;;11.98;7.70;;;23.70;64.20;;;;;;6008710;23;88521;-82
2023/10/03 05:55:05;;;;;;;13.20;7.75;;;23.70;63.60;;;;;;5998395;23;88282;-82
2023/10/03 05:57:30;;;;;;;13.23;8.15;;;23.70;63.60;;;;;;6007268;23;87290;-83
2023/10/03 05:59:56;;;;;;;14.57;8.43;;;23.60;63.70;;;;;;6008048;23;87379;-85
2023/10/03 06:02:22;;;;;;;13.50;8.27;;;23.70;63.70;;;;;;6050961;23;92326;-83
2023/10/03 06:04:49;;;;;;;15.30;8.93;;;23.60;63.70;;;;;;5994773;23;89670;-82
2023/10/03 06:07:15;;;;;;;12.75;8.32;;;23.60;63.70;;;;;;6053789;23;87019;-82
2023/10/03 06:09:41;;;;;;;14.27;8.23;;;23.60;63.60;;;;;;6006961;23;87398;-82
2023/10/03 06:12:09;;;;;;;12.20;7.72;;;23.60;63.70;;;;;;5997796;23;89964;-83
2023/10/03 06:14:35;;;;;;;12.40;8.10;;;23.60;63.80;;;;;;6030924;23;88582;-83
2023/10/03 06:17:01;;;;;;;13.48;8.10;;;23.60;63.80;;;;;;5997842;23;87282;-83
2023/10/03 06:19:26;;;;;;;12.75;7.38;;;23.60;63.70;;;;;;6007318;23;89002;-86
2023/10/03 06:21:52;;;;;;;13.30;8.10;;;23.60;63.80;;;;;;6019683;23;88867;-85
2023/10/03 06:24:18;;;;;;;13.25;7.68;;;23.60;63.80;;;;;;6053852;23;89936;-82
2023/10/03 06:26:47;;;;;;;12.73;7.55;;;23.60;64.00;;;;;;6007466;23;87988;-82
2023/10/03 06:29:15;;;;;;;12.07;7.60;;;23.60;63.70;;;;;;6022993;23;88802;-83
2023/10/03 06:31:40;;;;;;;12.75;7.65;;;23.60;63.80;;;;;;6004091;23;88644;-83
2023/10/03 06:34:06;;;;;;;12.77;7.65;;;23.60;63.70;;;;;;6007485;23;87830;-82
2023/10/03 06:36:32;;;;;;;12.38;7.45;;;23.60;63.70;;;;;;6007445;23;87595;-85
2023/10/03 06:38:59;;;;;;;11.02;7.60;;;23.60;63.70;;;;;;6006588;23;89397;-86
2023/10/03 06:41:26;;;;;;;11.88;7.82;;;23.70;64.10;;;;;;6007414;23;88149;-83
2023/10/03 06:43:51;;;;;;;10.88;7.30;;;23.60;63.80;;;;;;6006646;23;86595;-83
2023/10/03 06:46:20;;;;;;;11.77;7.57;;;23.60;63.80;;;;;;6009464;23;87492;-86
2023/10/03 06:48:46;;;;;;;10.43;6.67;;;23.60;63.70;;;;;;6011505;23;87450;-87
2023/10/03 06:51:12;;;;;;;13.77;7.97;;;23.60;63.40;;;;;;6002848;23;92059;-86
2023/10/03 06:53:41;;;;;;;12.98;7.45;;;23.60;63.80;;;;;;6009372;23;90546;-87
2023/10/03 06:56:07;;;;;;;13.57;7.70;;;23.60;63.70;;;;;;6009102;23;87037;-84
2023/10/03 06:58:33;;;;;;;18.50;7.13;;;23.60;63.80;;;;;;6010688;23;87408;-83
2023/10/03 07:00:59;;;;;;;19.67;7.60;;;23.60;63.60;;;;;;6020998;23;89852;-82
2023/10/03 07:03:25;;;;;;;15.38;8.02;;;23.60;63.50;;;;;;6005675;23;87267;-82
2023/10/03 07:05:51;;;;;;;15.60;9.00;;;23.60;63.60;;;;;;6007255;23;87267;-84
2023/10/03 07:08:18;;;;;;;15.32;9.70;;;23.60;63.70;;;;;;6007217;23;87098;-83
2023/10/03 07:10:44;;;;;;;13.45;8.10;;;23.60;63.60;;;;;;6009702;23;88464;-84
2023/10/03 07:13:12;;;;;;;12.32;8.25;;;23.60;64.00;;;;;;6009127;23;88070;-86
2023/10/03 07:15:39;;;;;;;16.35;10.40;;;23.60;63.70;;;;;;6009352;23;88508;-84
2023/10/03 07:18:05;;;;;;;15.10;9.55;;;23.60;63.80;;;;;;5998794;23;88711;-84
2023/10/03 07:20:31;;;;;;;13.75;8.52;;;23.60;63.80;;;;;;6008461;23;88596;-85
2023/10/03 07:22:57;;;;;;;13.52;8.77;;;23.60;64.10;;;;;;6007863;23;87451;-85
2023/10/03 07:25:23;;;;;;;11.63;7.95;;;23.60;64.20;;;;;;6050827;23;87491;-88
2023/10/03 07:27:49;;;;;;;16.75;7.78;;;23.60;64.20;;;;;;6006817;23;87410;-88
2023/10/03 07:30:15;;;;;;;13.95;7.78;;;23.60;64.20;;;;;;6048526;23;90182;-88
2023/10/03 07:32:41;;;;;;;12.55;7.55;;;23.60;64.30;;;;;;6009822;23;88225;-89
2023/10/03 07:35:12;;;;;;;15.68;8.10;;;23.60;64.30;;;;;;6010472;23;87077;-92
2023/10/03 07:37:41;;;;;;;12.30;7.18;;;23.60;64.40;;;;;;5998878;23;88755;-89
2023/10/03 07:40:07;;;;;;;13.02;7.18;;;23.60;64.80;;;;;;6003161;23;89675;-90
2023/10/03 07:42:33;;;;;;;12.27;7.03;;;23.60;64.50;;;;;;6010581;23;90965;-90
2023/10/03 07:44:59;;;;;;;12.18;6.78;;;23.60;64.40;;;;;;6011846;23;87530;-92
2023/10/03 07:47:24;;;;;;;12.45;6.78;;;23.60;64.60;;;;;;6057860;23;87588;-91
2023/10/03 07:49:53;;;;;;;9.10;6.38;;;23.60;64.40;;;;;;6011472;23;87635;-90
2023/10/03 07:52:19;;;;;;;9.07;5.83;;;23.60;64.60;;;;;;6052644;23;87688;-90
2023/10/03 07:54:54;;;;;;;11.77;6.40;;;23.60;64.50;;;;;;6010901;23;87079;-89
2023/10/03 07:57:25;;;;;;;14.30;6.75;;;23.60;64.40;;;;;;6011447;23;86985;-91
2023/10/03 07:59:51;;;;;;;10.38;6.45;;;23.60;64.30;;;;;;5999253;23;89044;-89
2023/10/03 08:02:17;;;;;;;13.85;6.82;;;23.60;64.30;;;;;;6012084;23;87594;-90
2023/10/03 08:04:46;;;;;;;10.70;5.72;;;23.60;64.40;;;;;;5998607;23;88249;-90
2023/10/03 08:07:21;;;;;;;11.68;5.28;;;23.60;64.20;;;;;;6058360;23;88657;-92
2023/10/03 08:09:48;;;;;;;19.33;7.90;;;23.60;63.90;;;;;;6012213;23;89674;-91
2023/10/03 08:12:14;;;;;;;12.90;5.05;;;23.60;64.20;;;;;;6010213;23;89860;-89
2023/10/03 08:14:40;;;;;;;12.80;5.93;;;23.60;64.40;;;;;;6061156;23;87383;-90
2023/10/03 08:17:07;;;;;;;20.60;7.80;;;23.60;64.70;;;;;;6003817;23;88863;-90
2023/10/03 08:19:33;;;;;;;19.33;6.95;;;23.60;64.50;;;;;;6061314;23;88724;-90
2023/10/03 08:21:59;;;;;;;21.75;7.72;;;23.60;64.60;;;;;;6003879;23;87113;-90
2023/10/03 08:24:26;;;;;;;19.13;8.15;;;23.60;64.40;;;;;;6012212;23;87338;-89
2023/10/03 08:26:52;;;;;;;22.80;8.38;;;23.60;64.50;;;;;;6014744;23;87088;-90
2023/10/03 08:29:21;;;;;;;18.10;6.85;;;23.60;64.40;;;;;;6008305;23;94735;-90
2023/10/03 08:31:57;;;;;;;15.23;7.13;;;23.60;64.50;;;;;;6014094;23;89277;-90
2023/10/03 08:34:32;;;;;;;19.80;7.20;;;23.60;64.20;;;;;;6009374;23;87168;-90
2023/10/03 08:37:06;;;;;;;19.85;8.60;;;23.60;64.30;;;;;;6016498;23;90101;-90
2023/10/03 08:39:34;;;;;;;18.92;7.47;;;23.60;64.40;;;;;;6033460;23;88991;-90
2023/10/03 08:42:12;;;;;;;13.75;7.15;;;23.60;64.30;;;;;;6002547;23;88465;-90
2023/10/03 08:44:51;;;;;;;14.20;7.93;;;23.60;64.30;;;;;;6014094;23;86963;-90
2023/10/03 08:47:29;;;;;;;19.15;7.78;;;23.60;64.20;;;;;;6005305;23;86502;-89
2023/10/03 08:50:10;;;;;;;14.55;6.72;;;23.60;65.10;;;;;;5989136;23;89796;-89
2023/10/03 08:52:39;;;;;;;11.63;6.65;;;23.60;64.30;;;;;;6058402;23;90771;-90
2023/10/03 08:55:09;;;;;;;;;;;23.60;64.50;;;;;;6003365;23;87828;-89
2023/10/03 08:57:35;;;;;;;14.25;6.22;;;23.60;64.50;;;;;;6006320;23;87727;-89
2023/10/03 09:00:06;;;;;;;14.23;6.43;;;23.60;64.40;;;;;;6003491;23;91501;-90
2023/10/03 09:02:45;;;;;;;11.75;6.22;;;23.60;64.30;;;;;;6008775;23;88559;-89
2023/10/03 09:05:22;;;;;;;13.45;6.28;;;23.60;64.20;;;;;;6005950;23;87106;-89
2023/10/03 09:07:49;;;;;;;12.68;6.43;;;23.60;64.20;;;;;;6059848;23;88072;-89
2023/10/03 09:10:22;;;;;;;8.15;5.38;;;23.60;64.00;;;;;;6012675;23;91233;-90
2023/10/03 09:13:04;;;;;;;9.02;5.13;;;23.60;64.20;;;;;;6061800;23;89266;-88
2023/10/03 09:15:38;;;;;;;11.63;5.82;;;23.60;64.20;;;;;;6010164;23;87506;-90
2023/10/03 09:18:09;;;;;;;10.02;4.70;;;23.60;64.30;;;;;;6014983;23;87629;-90
2023/10/03 09:20:36;;;;;;;9.38;4.75;;;23.60;64.40;;;;;;6011898;23;88793;-88
2023/10/03 09:23:05;;;;;;;8.95;4.60;;;23.60;64.20;;;;;;6013227;23;88059;-89
2023/10/03 09:25:32;;;;;;;8.05;4.95;;;23.60;64.20;;;;;;6014558;23;87388;-89
2023/10/03 09:28:05;;;;;;;11.02;5.63;;;23.60;64.30;;;;;;5997420;23;88709;-87
2023/10/03 09:30:37;;;;;;;11.30;4.53;;;23.60;64.20;;;;;;6007835;23;87201;-88
2023/10/03 09:33:11;;;;;;;10.35;5.00;;;23.60;63.90;;;;;;5998598;23;88552;-88
2023/10/03 09:35:40;;;;;;;7.72;4.85;;;23.60;64.20;;;;;;6056519;23;87526;-88
2023/10/03 09:38:17;;;;;;;8.68;4.10;;;23.60;64.30;;;;;;6009351;23;86949;-88
2023/10/03 09:40:49;;;;;;;7.38;4.15;;;23.60;64.00;;;;;;6008671;23;88116;-87
2023/10/03 09:43:19;;;;;;;8.13;4.00;;;23.60;63.80;;;;;;6000778;23;88494;-86
2023/10/03 09:45:46;;;;;;;;;;;23.60;63.60;;;;;;5994089;23;88568;-86
2023/10/03 09:48:13;;;;;;;6.97;3.42;;;23.60;63.50;;;;;;6007629;23;87282;-87
2023/10/03 09:50:51;;;;;;;10.18;3.80;;;23.60;63.50;;;;;;6009301;23;88165;-89
2023/10/03 09:53:27;;;;;;;13.95;3.50;;;23.60;63.30;;;;;;6004211;23;87188;-91
2023/10/03 09:55:56;;;;;;;8.80;3.88;;;23.60;63.60;;;;;;6009316;23;88112;-87
2023/10/03 09:58:31;;;;;;;6.95;3.60;;;23.60;63.50;;;;;;6007718;23;87706;-84
2023/10/03 10:00:58;;;;;;;4.57;2.33;;;23.60;63.20;;;;;;5997718;23;88667;-84
2023/10/03 10:03:28;;;;;;;5.72;2.90;;;23.60;63.10;;;;;;6008618;23;88098;-84
2023/10/03 10:06:12;;;;;;;5.78;2.50;;;23.60;63.20;;;;;;6022066;23;87140;-83
2023/10/03 10:08:47;;;;;;;3.55;2.17;;;23.60;63.20;;;;;;6009008;23;87239;-83
2023/10/03 10:11:13;;;;;;;4.90;2.22;;;23.60;62.90;;;;;;6006021;23;89706;-84
2023/10/03 10:13:59;;;;;;;4.00;1.80;;;23.60;62.60;;;;;;6007601;23;89887;-84
2023/10/03 10:16:28;;;;;;;6.10;2.17;;;23.60;62.70;;;;;;6024499;23;87233;-84
2023/10/03 10:18:54;;;;;;;7.70;2.67;;;23.60;62.30;;;;;;6018253;23;87704;-86
2023/10/03 10:21:20;;;;;;;4.28;2.38;;;23.60;62.80;;;;;;6008087;23;87924;-88
2023/10/03 10:24:16;;;;;;;7.10;2.10;;;23.60;62.70;;;;;;6010496;23;87435;-89
2023/10/03 10:26:48;;;;;;;6.07;2.10;;;23.60;62.60;;;;;;6038083;23;87152;-86
2023/10/03 10:29:20;;;;;;;5.75;2.30;;;23.60;62.40;;;;;;6038256;23;86467;-89
2023/10/03 10:31:57;;;;;;;5.55;1.92;;;23.60;62.00;;;;;;6036861;23;89889;-90
2023/10/03 10:34:46;;;;;;;4.45;1.75;;;23.60;61.60;;;;;;6037677;23;88807;-87
2023/10/03 10:37:15;;;;;;;3.22;1.15;;;23.60;61.30;;;;;;6035897;23;88328;-86
2023/10/03 10:40:09;;;;;;;1.80;1.20;;;23.60;61.00;;;;;;6038459;23;87551;-88
2023/10/03 10:42:55;;;;;;;2.75;1.25;;;23.60;60.20;;;;;;6035662;23;89542;-86
2023/10/03 10:45:22;;;;;;;3.42;1.38;;;23.60;60.60;;;;;;6039651;23;88152;-86
2023/10/03 10:47:54;;;;;;;3.42;1.25;;;23.60;60.40;;;;;;6037258;23;86870;-86
2023/10/03 10:50:27;;;;;;;3.22;1.67;;;23.60;60.60;;;;;;6037301;23;92132;-86
2023/10/03 10:52:54;;;;;;;2.83;1.20;;;23.60;60.50;;;;;;6037679;23;88340;-87
2023/10/03 10:55:24;;;;;;;2.80;1.50;;;23.60;60.30;;;;;;6035647;23;91096;-86
2023/10/03 10:58:08;;;;;;;3.42;1.40;;;23.60;60.90;;;;;;6036227;23;87217;-88
2023/10/03 11:00:34;;;;;;;5.50;1.70;;;23.60;60.90;;;;;;6037766;23;89180;-87
2023/10/03 11:03:04;;;;;;;3.47;1.30;;;23.60;60.80;;;;;;6037938;23;88607;-88
2023/10/03 11:05:52;;;;;;;6.43;1.80;;;23.60;61.30;;;;;;6037257;23;88073;-89
2023/10/03 11:08:18;;;;;;;3.10;1.65;;;23.60;60.90;;;;;;6040322;23;87519;-89
2023/10/03 11:10:53;;;;;;;3.50;1.48;;;23.60;61.10;;;;;;6039921;23;87244;-89
2023/10/03 11:13:23;;;;;;;2.72;1.13;;;23.60;61.40;;;;;;6062823;23;89866;-89
2023/10/03 11:15:52;;;;;;;4.00;1.40;;;23.60;61.50;;;;;;6037670;23;88341;-89
2023/10/03 11:18:27;;;;;;;2.30;1.20;;;23.60;61.40;;;;;;6037121;23;87423;-88
2023/10/03 11:20:55;;;;;;;3.83;1.52;;;23.60;61.50;;;;;;6039542;23;86526;-88
2023/10/03 11:23:23;;;;;;;5.00;1.70;;;23.60;61.40;;;;;;6041685;23;88600;-89
2023/10/03 11:26:00;;;;;;;1.55;1.13;;;23.60;61.60;;;;;;6040025;23;88734;-89
2023/10/03 11:28:30;;;;;;;3.33;1.52;;;23.60;61.40;;;;;;6037236;23;88469;-88
2023/10/03 11:31:06;;;;;;;3.20;1.60;;;23.60;61.40;;;;;;6041534;23;87446;-89
2023/10/03 11:33:42;;;;;;;2.35;1.13;;;23.60;61.70;;;;;;6042716;23;89831;-88
2023/10/03 11:36:08;;;;;;;2.40;1.58;;;23.60;61.50;;;;;;6040561;23;87464;-88
2023/10/03 11:38:50;;;;;;;3.10;1.30;;;23.60;61.60;;;;;;6043078;23;86778;-88
2023/10/03 11:41:33;;;;;;;3.25;1.70;;;23.60;61.40;;;;;;6042303;23;86893;-89
2023/10/03 11:43:59;;;;;;;3.75;1.23;;;23.60;61.60;;;;;;6042174;23;88062;-88
2023/10/03 11:46:25;;;;;;;2.40;1.33;;;23.60;61.40;;;;;;6043844;23;88109;-89
2023/10/03 11:48:59;;;;;;;3.75;1.25;;;23.60;61.50;;;;;;6042607;23;87386;-88
2023/10/03 11:51:25;;;;;;;2.90;1.40;;;23.60;61.40;;;;;;6041983;23;86909;-89
2023/10/03 11:53:53;;;;;;;2.95;1.20;;;23.60;61.20;;;;;;6040145;23;90592;-88
2023/10/03 11:56:18;;;;;;;1.83;1.20;;;23.60;61.20;;;;;;6038838;23;92864;-88
2023/10/03 11:58:44;;;;;;;2.53;1.20;;;23.70;61.00;;;;;;6036535;23;87217;-88
2023/10/03 12:01:10;;;;;;;2.38;1.15;;;23.60;61.10;;;;;;6061039;23;89273;-88
2023/10/03 12:03:37;;;;;;;1.83;1.23;;;23.60;61.50;;;;;;6035737;23;91528;-88
2023/10/03 12:06:04;;;;;;;2.78;1.13;;;23.70;61.50;;;;;;6036301;23;89630;-88
2023/10/03 12:08:32;;;;;;;2.65;1.30;;;23.70;61.20;;;;;;6061072;23;87564;-88
2023/10/03 12:10:58;;;;;;;2.35;1.60;;;23.60;60.90;;;;;;6037069;23;86501;-89
2023/10/03 12:13:23;;;;;;;1.98;0.90;;;23.60;60.70;;;;;;6035405;23;91398;-88
2023/10/03 12:15:49;;;;;;;2.72;1.10;;;23.70;60.90;;;;;;6036732;23;89612;-89
2023/10/03 12:18:15;;;;;;;2.90;1.42;;;23.60;60.90;;;;;;6039277;23;87919;-89
2023/10/03 12:20:44;;;;;;;2.20;1.27;;;23.70;60.60;;;;;;6039262;23;87303;-88
2023/10/03 12:23:10;;;;;;;1.63;0.97;;;23.70;60.80;;;;;;6037576;23;89790;-87
2023/10/03 12:25:35;;;;;;;2.00;1.10;;;23.70;61.40;;;;;;6038283;23;87513;-88
2023/10/03 12:28:01;;;;;;;2.63;1.08;;;23.70;60.80;;;;;;6035923;23;86861;-88
2023/10/03 12:30:27;;;;;;;1.75;1.08;;;23.70;60.70;;;;;;6034190;23;88148;-87
2023/10/03 12:32:53;;;;;;;2.58;1.33;;;23.70;60.50;;;;;;6017494;23;90209;-88
2023/10/03 12:35:20;;;;;;;1.60;1.00;;;23.70;60.70;;;;;;6039560;23;91661;-87
2023/10/03 12:37:48;;;;;;;2.70;1.50;;;23.70;60.50;;;;;;6038072;23;86781;-89
2023/10/03 12:40:18;;;;;;;2.42;1.08;;;23.70;60.00;;;;;;6038025;23;87510;-88
2023/10/03 12:42:48;;;;;;;2.58;1.10;;;23.70;59.80;;;;;;6037916;23;90563;-88
2023/10/03 12:45:16;;;;;;;2.15;1.50;;;23.70;59.90;;;;;;6041279;23;90477;-89
2023/10/03 12:47:47;;;;;;;1.30;1.20;;;23.70;59.90;;;;;;6041691;23;86823;-88
2023/10/03 12:50:27;;;;;;;2.10;0.95;;;23.70;59.80;;;;;;6061436;23;88233;-88
2023/10/03 12:52:54;;;;;;;2.05;1.13;;;23.70;59.40;;;;;;6036888;23;89478;-88
2023/10/03 12:55:20;;;;;;;1.73;1.30;;;23.70;59.70;;;;;;6037474;23;88207;-88